sensor_id;sensor_type;location;lat;lon;timestamp;pressure;altitude;pressure_sealevel;temperature;humidity
55424;BME280;41294;42.666;23.350;2022-10-26T00:02:23;95473.94;;;17.22;73.17
55424;BME280;41294;42.666;23.350;2022-10-26T00:04:48;95465.41;;;17.18;73.35
55424;BME280;41294;42.666;23.350;2022-10-26T00:07:13;95470.03;;;17.18;73.62
55424;BME280;41294;42.666;23.350;2022-10-26T00:09:39;95463.22;;;17.17;73.57
55424;BME280;41294;42.666;23.350;2022-10-26T00:12:04;95469.69;;;17.10;73.90
55424;BME280;41294;42.666;23.350;2022-10-26T00:14:30;95471.34;;;17.08;73.90
55424;BME280;41294;42.666;23.350;2022-10-26T00:16:55;95480.78;;;17.09;74.07
55424;BME280;41294;42.666;23.350;2022-10-26T00:19:21;95477.50;;;16.99;74.56
55424;BME280;41294;42.666;23.350;2022-10-26T00:21:47;95472.47;;;17.01;74.09
55424;BME280;41294;42.666;23.350;2022-10-26T00:24:12;95470.72;;;16.98;74.26
55424;BME280;41294;42.666;23.350;2022-10-26T00:26:38;95467.91;;;17.02;73.90
55424;BME280;41294;42.666;23.350;2022-10-26T00:29:04;95479.38;;;16.93;74.14
55424;BME280;41294;42.666;23.350;2022-10-26T00:31:30;95478.00;;;16.98;73.94
55424;BME280;41294;42.666;23.350;2022-10-26T00:33:56;95483.31;;;16.98;73.92
55424;BME280;41294;42.666;23.350;2022-10-26T00:36:23;95483.91;;;16.87;74.27
55424;BME280;41294;42.666;23.350;2022-10-26T00:38:50;95487.13;;;16.77;74.90
55424;BME280;41294;42.666;23.350;2022-10-26T00:41:24;95477.97;;;16.78;74.81
55424;BME280;41294;42.666;23.350;2022-10-26T00:43:52;95477.88;;;16.72;75.01
55424;BME280;41294;42.666;23.350;2022-10-26T00:46:21;95478.28;;;16.65;75.56
55424;BME280;41294;42.666;23.350;2022-10-26T00:48:54;95479.56;;;16.70;75.38
55424;BME280;41294;42.666;23.350;2022-10-26T00:53:50;95475.09;;;16.61;75.90
55424;BME280;41294;42.666;23.350;2022-10-26T00:56:16;95475.09;;;16.61;75.98
55424;BME280;41294;42.666;23.350;2022-10-26T00:58:42;95471.16;;;16.57;76.40
55424;BME280;41294;42.666;23.350;2022-10-26T01:01:08;95463.09;;;16.51;76.40
55424;BME280;41294;42.666;23.350;2022-10-26T01:03:35;95468.44;;;16.51;76.50
55424;BME280;41294;42.666;23.350;2022-10-26T01:06:02;95468.94;;;16.55;76.26
55424;BME280;41294;42.666;23.350;2022-10-26T01:08:29;95467.59;;;16.46;76.52
55424;BME280;41294;42.666;23.350;2022-10-26T01:10:56;95467.06;;;16.42;76.62
55424;BME280;41294;42.666;23.350;2022-10-26T01:13:23;95472.66;;;16.44;76.94
55424;BME280;41294;42.666;23.350;2022-10-26T01:32:31;95467.53;;;16.26;79.01
55424;BME280;41294;42.666;23.350;2022-10-26T01:35:05;95467.06;;;16.27;78.69
55424;BME280;41294;42.666;23.350;2022-10-26T01:37:36;95450.13;;;16.25;78.86
55424;BME280;41294;42.666;23.350;2022-10-26T01:40:11;95457.47;;;16.30;78.35
55424;BME280;41294;42.666;23.350;2022-10-26T01:42:43;95451.50;;;16.35;77.94
55424;BME280;41294;42.666;23.350;2022-10-26T01:45:13;95456.06;;;16.34;78.19
55424;BME280;41294;42.666;23.350;2022-10-26T01:47:39;95450.41;;;16.27;78.18
55424;BME280;41294;42.666;23.350;2022-10-26T01:50:06;95456.56;;;16.33;77.85
55424;BME280;41294;42.666;23.350;2022-10-26T01:52:33;95451.44;;;16.29;77.96
55424;BME280;41294;42.666;23.350;2022-10-26T01:55:04;95451.59;;;16.26;77.96
55424;BME280;41294;42.666;23.350;2022-10-26T01:57:32;95451.59;;;16.26;78.13
55424;BME280;41294;42.666;23.350;2022-10-26T02:00:08;95454.16;;;16.20;77.97
55424;BME280;41294;42.666;23.350;2022-10-26T02:06:05;95456.72;;;16.15;78.42
55424;BME280;41294;42.666;23.350;2022-10-26T02:11:42;95449.50;;;16.30;77.52
55424;BME280;41294;42.666;23.350;2022-10-26T02:14:21;95451.97;;;16.19;77.72
55424;BME280;41294;42.666;23.350;2022-10-26T02:16:55;95463.50;;;16.16;77.71
55424;BME280;41294;42.666;23.350;2022-10-26T02:19:51;95471.19;;;16.14;78.12
55424;BME280;41294;42.666;23.350;2022-10-26T02:22:34;95464.81;;;16.06;79.31
55424;BME280;41294;42.666;23.350;2022-10-26T02:25:07;95468.06;;;16.15;78.54
55424;BME280;41294;42.666;23.350;2022-10-26T02:27:36;95472.28;;;15.93;79.83
55424;BME280;41294;42.666;23.350;2022-10-26T02:30:04;95464.97;;;15.88;80.76
55424;BME280;41294;42.666;23.350;2022-10-26T02:32:33;95462.44;;;15.93;80.18
55424;BME280;41294;42.666;23.350;2022-10-26T02:35:01;95467.63;;;15.88;80.21
55424;BME280;41294;42.666;23.350;2022-10-26T02:37:27;95468.63;;;15.76;81.38
55424;BME280;41294;42.666;23.350;2022-10-26T02:39:54;95472.50;;;15.75;81.71
55424;BME280;41294;42.666;23.350;2022-10-26T02:42:21;95467.19;;;15.75;82.02
55424;BME280;41294;42.666;23.350;2022-10-26T02:44:50;95470.44;;;15.56;83.34
55424;BME280;41294;42.666;23.350;2022-10-26T02:47:19;95471.91;;;15.19;85.92
55424;BME280;41294;42.666;23.350;2022-10-26T02:49:45;95477.34;;;14.78;88.82
55424;BME280;41294;42.666;23.350;2022-10-26T02:52:32;95477.69;;;14.38;90.93
55424;BME280;41294;42.666;23.350;2022-10-26T02:55:17;95478.22;;;13.92;93.72
55424;BME280;41294;42.666;23.350;2022-10-26T02:57:48;95484.16;;;13.78;94.87
55424;BME280;41294;42.666;23.350;2022-10-26T03:00:17;95484.63;;;13.50;97.00
55424;BME280;41294;42.666;23.350;2022-10-26T03:02:44;95486.53;;;13.31;98.06
55424;BME280;41294;42.666;23.350;2022-10-26T03:05:14;95487.44;;;13.19;98.97
55424;BME280;41294;42.666;23.350;2022-10-26T03:07:41;95492.28;;;13.30;98.95
55424;BME280;41294;42.666;23.350;2022-10-26T03:10:06;95494.75;;;13.24;98.95
55424;BME280;41294;42.666;23.350;2022-10-26T03:12:32;95500.16;;;12.94;100.00
55424;BME280;41294;42.666;23.350;2022-10-26T03:14:57;95501.91;;;12.88;100.00
55424;BME280;41294;42.666;23.350;2022-10-26T03:17:23;95501.13;;;12.79;100.00
55424;BME280;41294;42.666;23.350;2022-10-26T03:19:48;95500.63;;;13.02;100.00
55424;BME280;41294;42.666;23.350;2022-10-26T03:22:13;95499.47;;;13.38;99.04
55424;BME280;41294;42.666;23.350;2022-10-26T03:24:39;95509.31;;;13.47;97.60
55424;BME280;41294;42.666;23.350;2022-10-26T03:27:04;95509.75;;;13.63;97.25
55424;BME280;41294;42.666;23.350;2022-10-26T03:29:30;95513.72;;;13.59;97.35
55424;BME280;41294;42.666;23.350;2022-10-26T03:31:55;95510.03;;;13.65;98.15
55424;BME280;41294;42.666;23.350;2022-10-26T03:34:21;95510.47;;;13.82;97.08
55424;BME280;41294;42.666;23.350;2022-10-26T03:36:46;95511.75;;;13.95;97.37
55424;BME280;41294;42.666;23.350;2022-10-26T03:39:12;95516.75;;;14.11;96.84
55424;BME280;41294;42.666;23.350;2022-10-26T03:41:37;95510.41;;;14.17;96.78
55424;BME280;41294;42.666;23.350;2022-10-26T03:44:03;95520.19;;;14.35;95.80
55424;BME280;41294;42.666;23.350;2022-10-26T03:46:30;95517.81;;;14.46;95.13
55424;BME280;41294;42.666;23.350;2022-10-26T03:48:55;95520.13;;;14.53;94.82
55424;BME280;41294;42.666;23.350;2022-10-26T03:51:20;95513.66;;;14.54;94.76
55424;BME280;41294;42.666;23.350;2022-10-26T03:53:46;95519.22;;;14.65;94.57
55424;BME280;41294;42.666;23.350;2022-10-26T03:56:11;95508.63;;;14.65;94.41
55424;BME280;41294;42.666;23.350;2022-10-26T03:58:37;95516.81;;;14.76;93.98
55424;BME280;41294;42.666;23.350;2022-10-26T04:01:02;95507.94;;;14.78;94.09
55424;BME280;41294;42.666;23.350;2022-10-26T04:03:28;95514.88;;;14.76;93.87
55424;BME280;41294;42.666;23.350;2022-10-26T04:05:53;95514.44;;;14.78;94.05
55424;BME280;41294;42.666;23.350;2022-10-26T04:08:20;95510.03;;;14.75;94.16
55424;BME280;41294;42.666;23.350;2022-10-26T04:10:46;95514.44;;;14.78;94.23
55424;BME280;41294;42.666;23.350;2022-10-26T04:13:11;95523.28;;;14.75;94.18
55424;BME280;41294;42.666;23.350;2022-10-26T04:15:37;95517.09;;;14.78;94.32
55424;BME280;41294;42.666;23.350;2022-10-26T04:18:02;95519.13;;;14.82;93.75
55424;BME280;41294;42.666;23.350;2022-10-26T04:20:29;95517.94;;;14.83;94.04
55424;BME280;41294;42.666;23.350;2022-10-26T04:22:59;95518.00;;;14.75;94.57
55424;BME280;41294;42.666;23.350;2022-10-26T04:25:28;95520.63;;;14.75;94.05
55424;BME280;41294;42.666;23.350;2022-10-26T04:27:54;95518.44;;;14.73;94.23
55424;BME280;41294;42.666;23.350;2022-10-26T04:30:19;95525.09;;;14.69;94.41
55424;BME280;41294;42.666;23.350;2022-10-26T04:32:45;95523.13;;;14.78;93.71
55424;BME280;41294;42.666;23.350;2022-10-26T04:35:10;95514.19;;;14.67;94.25
55424;BME280;41294;42.666;23.350;2022-10-26T04:37:36;95521.84;;;14.65;94.28
55424;BME280;41294;42.666;23.350;2022-10-26T04:40:03;95522.19;;;14.58;94.86
55424;BME280;41294;42.666;23.350;2022-10-26T04:42:28;95530.94;;;14.73;93.84
55424;BME280;41294;42.666;23.350;2022-10-26T04:44:58;95525.72;;;14.55;94.76
55424;BME280;41294;42.666;23.350;2022-10-26T04:47:24;95532.78;;;14.58;94.46
55424;BME280;41294;42.666;23.350;2022-10-26T04:49:49;95531.16;;;14.60;94.40
55424;BME280;41294;42.666;23.350;2022-10-26T04:52:14;95534.56;;;14.61;94.66
55424;BME280;41294;42.666;23.350;2022-10-26T04:54:40;95538.34;;;14.69;94.05
55424;BME280;41294;42.666;23.350;2022-10-26T04:57:05;95534.34;;;14.73;93.89
55424;BME280;41294;42.666;23.350;2022-10-26T04:59:31;95537.72;;;14.74;94.50
55424;BME280;41294;42.666;23.350;2022-10-26T05:01:56;95543.81;;;14.88;93.45
55424;BME280;41294;42.666;23.350;2022-10-26T05:04:22;95553.78;;;15.02;92.47
55424;BME280;41294;42.666;23.350;2022-10-26T05:06:47;95542.50;;;15.16;92.00
55424;BME280;41294;42.666;23.350;2022-10-26T05:09:12;95547.44;;;15.32;91.18
55424;BME280;41294;42.666;23.350;2022-10-26T05:11:38;95538.56;;;15.35;91.26
55424;BME280;41294;42.666;23.350;2022-10-26T05:14:03;95541.81;;;15.54;90.55
55424;BME280;41294;42.666;23.350;2022-10-26T05:16:29;95539.91;;;15.92;88.31
55424;BME280;41294;42.666;23.350;2022-10-26T05:18:54;95542.84;;;16.23;86.59
55424;BME280;41294;42.666;23.350;2022-10-26T05:21:20;95549.34;;;16.50;84.96
55424;BME280;41294;42.666;23.350;2022-10-26T05:23:50;95545.75;;;16.68;83.64
55424;BME280;41294;42.666;23.350;2022-10-26T05:26:18;95551.63;;;17.26;81.31
55424;BME280;41294;42.666;23.350;2022-10-26T05:28:43;95550.72;;;17.69;78.48
55424;BME280;41294;42.666;23.350;2022-10-26T05:31:09;95550.50;;;18.43;75.49
55424;BME280;41294;42.666;23.350;2022-10-26T05:33:34;95555.63;;;18.77;73.30
55424;BME280;41294;42.666;23.350;2022-10-26T05:36:00;95564.88;;;19.18;72.01
55424;BME280;41294;42.666;23.350;2022-10-26T05:38:25;95566.13;;;19.70;69.91
55424;BME280;41294;42.666;23.350;2022-10-26T05:40:52;95580.06;;;20.06;67.34
55424;BME280;41294;42.666;23.350;2022-10-26T05:43:19;95569.53;;;19.81;64.64
55424;BME280;41294;42.666;23.350;2022-10-26T05:45:45;95582.53;;;15.88;78.39
55424;BME280;41294;42.666;23.350;2022-10-26T05:48:11;95587.56;;;15.49;81.91
55424;BME280;41294;42.666;23.350;2022-10-26T05:50:37;95589.72;;;15.97;79.87
55424;BME280;41294;42.666;23.350;2022-10-26T05:53:03;95595.97;;;16.23;79.10
55424;BME280;41294;42.666;23.350;2022-10-26T05:55:28;95605.88;;;16.80;76.82
55424;BME280;41294;42.666;23.350;2022-10-26T05:57:54;95588.53;;;18.18;71.77
55424;BME280;41294;42.666;23.350;2022-10-26T06:00:22;95585.91;;;19.05;68.28
55424;BME280;41294;42.666;23.350;2022-10-26T06:05:21;95587.38;;;19.06;66.62
55424;BME280;41294;42.666;23.350;2022-10-26T06:07:48;95608.72;;;17.25;73.01
55424;BME280;41294;42.666;23.350;2022-10-26T06:10:14;95610.72;;;17.44;72.77
55424;BME280;41294;42.666;23.350;2022-10-26T06:12:40;95612.28;;;17.02;75.44
55424;BME280;41294;42.666;23.350;2022-10-26T06:15:06;95608.00;;;17.59;73.00
55424;BME280;41294;42.666;23.350;2022-10-26T06:17:41;95608.97;;;18.01;71.63
55424;BME280;41294;42.666;23.350;2022-10-26T06:30:41;95614.72;;;21.25;62.03
55424;BME280;41294;42.666;23.350;2022-10-26T06:33:09;95616.34;;;21.71;60.60
55424;BME280;41294;42.666;23.350;2022-10-26T06:35:52;95611.00;;;22.17;59.62
55424;BME280;41294;42.666;23.350;2022-10-26T06:38:22;95614.81;;;22.38;58.38
55424;BME280;41294;42.666;23.350;2022-10-26T06:40:51;95601.41;;;22.73;58.13
55424;BME280;41294;42.666;23.350;2022-10-26T06:43:24;95613.50;;;23.43;55.23
55424;BME280;41294;42.666;23.350;2022-10-26T06:48:50;95616.41;;;24.11;53.08
55424;BME280;41294;42.666;23.350;2022-10-26T06:51:18;95612.53;;;24.44;52.43
55424;BME280;41294;42.666;23.350;2022-10-26T06:53:52;95620.78;;;24.51;51.63
55424;BME280;41294;42.666;23.350;2022-10-26T06:56:21;95628.78;;;24.38;52.16
55424;BME280;41294;42.666;23.350;2022-10-26T06:58:50;95623.72;;;24.97;50.66
55424;BME280;41294;42.666;23.350;2022-10-26T07:01:18;95623.94;;;24.99;50.35
55424;BME280;41294;42.666;23.350;2022-10-26T07:03:44;95621.47;;;25.01;49.67
55424;BME280;41294;42.666;23.350;2022-10-26T07:06:09;95628.53;;;25.04;49.99
55424;BME280;41294;42.666;23.350;2022-10-26T07:08:35;95630.16;;;24.94;49.90
55424;BME280;41294;42.666;23.350;2022-10-26T07:11:00;95629.63;;;25.27;49.73
55424;BME280;41294;42.666;23.350;2022-10-26T07:13:26;95630.50;;;25.61;48.05
55424;BME280;41294;42.666;23.350;2022-10-26T07:15:51;95625.84;;;25.62;48.30
55424;BME280;41294;42.666;23.350;2022-10-26T07:18:17;95625.09;;;25.61;48.24
55424;BME280;41294;42.666;23.350;2022-10-26T07:20:42;95620.78;;;25.84;47.75
55424;BME280;41294;42.666;23.350;2022-10-26T07:23:08;95623.16;;;25.62;47.49
55424;BME280;41294;42.666;23.350;2022-10-26T07:25:37;95629.47;;;26.03;47.38
55424;BME280;41294;42.666;23.350;2022-10-26T07:28:05;95629.78;;;26.59;45.97
55424;BME280;41294;42.666;23.350;2022-10-26T07:30:32;95625.63;;;26.58;45.73
55424;BME280;41294;42.666;23.350;2022-10-26T07:33:08;95625.25;;;26.94;44.94
55424;BME280;41294;42.666;23.350;2022-10-26T07:35:34;95623.69;;;26.99;44.75
55424;BME280;41294;42.666;23.350;2022-10-26T07:38:00;95624.41;;;26.99;45.17
55424;BME280;41294;42.666;23.350;2022-10-26T07:40:26;95622.56;;;27.15;44.19
55424;BME280;41294;42.666;23.350;2022-10-26T07:42:55;95616.06;;;27.10;44.32
55424;BME280;41294;42.666;23.350;2022-10-26T07:45:21;95611.38;;;27.39;43.73
55424;BME280;41294;42.666;23.350;2022-10-26T07:47:48;95611.53;;;27.61;43.29
55424;BME280;41294;42.666;23.350;2022-10-26T07:50:13;95614.91;;;27.26;43.20
55424;BME280;41294;42.666;23.350;2022-10-26T07:52:39;95602.31;;;27.08;43.74
55424;BME280;41294;42.666;23.350;2022-10-26T07:55:09;95607.50;;;27.47;43.04
55424;BME280;41294;42.666;23.350;2022-10-26T07:57:35;95610.63;;;27.86;42.53
55424;BME280;41294;42.666;23.350;2022-10-26T08:00:04;95605.69;;;28.63;41.45
55424;BME280;41294;42.666;23.350;2022-10-26T08:02:30;95597.34;;;28.46;41.43
55424;BME280;41294;42.666;23.350;2022-10-26T08:04:56;95606.84;;;28.82;40.29
55424;BME280;41294;42.666;23.350;2022-10-26T08:07:21;95606.66;;;28.88;40.42
55424;BME280;41294;42.666;23.350;2022-10-26T08:09:47;95605.41;;;28.96;39.62
55424;BME280;41294;42.666;23.350;2022-10-26T08:12:12;95600.06;;;28.61;40.76
55424;BME280;41294;42.666;23.350;2022-10-26T08:14:41;95603.59;;;28.91;40.02
55424;BME280;41294;42.666;23.350;2022-10-26T08:17:07;95602.31;;;29.15;39.72
55424;BME280;41294;42.666;23.350;2022-10-26T08:19:32;95601.03;;;29.53;38.85
55424;BME280;41294;42.666;23.350;2022-10-26T08:21:58;95612.19;;;28.67;40.00
55424;BME280;41294;42.666;23.350;2022-10-26T08:24:23;95609.00;;;28.84;40.37
55424;BME280;41294;42.666;23.350;2022-10-26T08:26:49;95606.47;;;29.16;39.41
55424;BME280;41294;42.666;23.350;2022-10-26T08:29:14;95603.53;;;29.81;38.14
55424;BME280;41294;42.666;23.350;2022-10-26T08:31:41;95609.09;;;30.44;37.08
55424;BME280;41294;42.666;23.350;2022-10-26T08:34:06;95593.41;;;29.74;37.84
55424;BME280;41294;42.666;23.350;2022-10-26T08:36:32;95597.44;;;29.28;39.06
55424;BME280;41294;42.666;23.350;2022-10-26T08:38:57;95597.25;;;29.11;39.18
55424;BME280;41294;42.666;23.350;2022-10-26T08:44:04;95590.22;;;29.45;38.53
55424;BME280;41294;42.666;23.350;2022-10-26T08:46:40;95592.41;;;29.17;39.31
55424;BME280;41294;42.666;23.350;2022-10-26T08:49:24;95592.03;;;29.43;38.83
55424;BME280;41294;42.666;23.350;2022-10-26T08:51:55;95596.75;;;30.11;37.48
55424;BME280;41294;42.666;23.350;2022-10-26T08:54:36;95601.06;;;29.38;38.27
55424;BME280;41294;42.666;23.350;2022-10-26T08:57:11;95602.16;;;28.90;39.13
55424;BME280;41294;42.666;23.350;2022-10-26T09:00:09;95603.13;;;28.42;40.25
55424;BME280;41294;42.666;23.350;2022-10-26T09:02:36;95606.88;;;28.39;40.04
55424;BME280;41294;42.666;23.350;2022-10-26T09:05:01;95603.63;;;27.91;40.91
55424;BME280;41294;42.666;23.350;2022-10-26T09:14:09;95599.63;;;29.00;39.79
55424;BME280;41294;42.666;23.350;2022-10-26T09:17:03;95596.03;;;28.32;39.88
55424;BME280;41294;42.666;23.350;2022-10-26T09:22:14;95601.69;;;28.56;39.81
55424;BME280;41294;42.666;23.350;2022-10-26T09:24:53;95596.53;;;29.25;38.63
55424;BME280;41294;42.666;23.350;2022-10-26T09:27:25;95585.38;;;28.27;38.67
55424;BME280;41294;42.666;23.350;2022-10-26T09:29:52;95583.84;;;28.11;40.00
55424;BME280;41294;42.666;23.350;2022-10-26T09:32:29;95582.03;;;27.70;40.55
55424;BME280;41294;42.666;23.350;2022-10-26T09:35:03;95588.84;;;27.36;39.87
55424;BME280;41294;42.666;23.350;2022-10-26T09:37:39;95583.47;;;27.44;40.28
55424;BME280;41294;42.666;23.350;2022-10-26T09:40:12;95589.88;;;27.81;39.30
55424;BME280;41294;42.666;23.350;2022-10-26T09:47:50;95581.88;;;27.76;39.30
55424;BME280;41294;42.666;23.350;2022-10-26T09:50:49;95582.81;;;28.21;38.57
55424;BME280;41294;42.666;23.350;2022-10-26T09:53:15;95579.66;;;27.11;40.15
55424;BME280;41294;42.666;23.350;2022-10-26T09:55:49;95576.94;;;27.95;39.02
55424;BME280;41294;42.666;23.350;2022-10-26T09:58:24;95567.09;;;27.77;39.17
55424;BME280;41294;42.666;23.350;2022-10-26T10:00:51;95572.69;;;28.22;37.65
55424;BME280;41294;42.666;23.350;2022-10-26T10:03:24;95565.56;;;28.46;36.32
55424;BME280;41294;42.666;23.350;2022-10-26T10:05:50;95561.78;;;28.07;37.30
55424;BME280;41294;42.666;23.350;2022-10-26T10:08:20;95568.84;;;28.10;37.26
55424;BME280;41294;42.666;23.350;2022-10-26T10:13:20;95558.81;;;26.25;40.50
55424;BME280;41294;42.666;23.350;2022-10-26T10:18:52;95553.19;;;26.97;39.49
55424;BME280;41294;42.666;23.350;2022-10-26T10:21:18;95551.38;;;26.38;38.83
55424;BME280;41294;42.666;23.350;2022-10-26T10:23:49;95553.41;;;26.78;38.45
55424;BME280;41294;42.666;23.350;2022-10-26T10:26:18;95549.41;;;27.48;38.61
55424;BME280;41294;42.666;23.350;2022-10-26T10:28:59;95550.47;;;27.45;37.72
55424;BME280;41294;42.666;23.350;2022-10-26T10:31:32;95541.50;;;27.22;38.42
55424;BME280;41294;42.666;23.350;2022-10-26T10:33:58;95539.19;;;27.26;38.59
55424;BME280;41294;42.666;23.350;2022-10-26T10:36:26;95535.50;;;27.44;38.33
55424;BME280;41294;42.666;23.350;2022-10-26T10:38:54;95537.34;;;27.49;37.73
55424;BME280;41294;42.666;23.350;2022-10-26T10:41:42;95536.41;;;26.70;39.46
55424;BME280;41294;42.666;23.350;2022-10-26T10:44:25;95535.16;;;26.18;39.91
55424;BME280;41294;42.666;23.350;2022-10-26T10:47:04;95529.88;;;26.46;40.12
55424;BME280;41294;42.666;23.350;2022-10-26T10:49:30;95531.50;;;26.15;40.54
55424;BME280;41294;42.666;23.350;2022-10-26T10:51:56;95529.03;;;26.51;39.90
55424;BME280;41294;42.666;23.350;2022-10-26T10:57:11;95514.97;;;26.93;39.62
55424;BME280;41294;42.666;23.350;2022-10-26T11:07:28;95503.34;;;28.19;37.63
55424;BME280;41294;42.666;23.350;2022-10-26T11:09:57;95518.75;;;27.81;38.67
55424;BME280;41294;42.666;23.350;2022-10-26T11:12:29;95501.03;;;27.80;38.41
55424;BME280;41294;42.666;23.350;2022-10-26T11:15:10;95502.47;;;27.38;38.04
55424;BME280;41294;42.666;23.350;2022-10-26T11:17:49;95507.84;;;26.82;39.90
55424;BME280;41294;42.666;23.350;2022-10-26T11:20:21;95507.72;;;26.88;40.40
55424;BME280;41294;42.666;23.350;2022-10-26T11:25:19;95507.59;;;27.21;39.97
55424;BME280;41294;42.666;23.350;2022-10-26T11:27:52;95505.44;;;27.55;39.13
55424;BME280;41294;42.666;23.350;2022-10-26T11:30:21;95499.75;;;27.38;39.48
55424;BME280;41294;42.666;23.350;2022-10-26T11:32:53;95493.06;;;27.32;39.58
55424;BME280;41294;42.666;23.350;2022-10-26T11:35:45;95495.97;;;26.85;40.01
55424;BME280;41294;42.666;23.350;2022-10-26T11:38:36;95492.56;;;27.41;39.59
55424;BME280;41294;42.666;23.350;2022-10-26T11:43:56;95490.59;;;27.48;38.02
55424;BME280;41294;42.666;23.350;2022-10-26T11:46:46;95489.59;;;27.59;38.08
55424;BME280;41294;42.666;23.350;2022-10-26T11:49:21;95491.50;;;27.51;37.42
55424;BME280;41294;42.666;23.350;2022-10-26T11:52:00;95484.09;;;27.44;37.75
55424;BME280;41294;42.666;23.350;2022-10-26T11:54:44;95485.38;;;26.87;38.41
55424;BME280;41294;42.666;23.350;2022-10-26T11:57:13;95473.53;;;26.98;38.18
55424;BME280;41294;42.666;23.350;2022-10-26T11:59:44;95481.09;;;26.99;37.47
55424;BME280;41294;42.666;23.350;2022-10-26T12:02:22;95469.94;;;27.23;36.94
55424;BME280;41294;42.666;23.350;2022-10-26T12:07:44;95478.50;;;26.86;37.02
55424;BME280;41294;42.666;23.350;2022-10-26T12:10:24;95479.84;;;26.32;38.05
55424;BME280;41294;42.666;23.350;2022-10-26T12:15:41;95468.06;;;26.63;37.43
55424;BME280;41294;42.666;23.350;2022-10-26T12:20:52;95473.53;;;26.50;36.31
55424;BME280;41294;42.666;23.350;2022-10-26T12:23:21;95471.03;;;26.52;36.39
55424;BME280;41294;42.666;23.350;2022-10-26T12:25:47;95472.50;;;26.53;35.95
55424;BME280;41294;42.666;23.350;2022-10-26T12:28:38;95466.09;;;26.63;36.00
55424;BME280;41294;42.666;23.350;2022-10-26T12:33:58;95466.31;;;26.72;35.21
55424;BME280;41294;42.666;23.350;2022-10-26T12:39:42;95459.69;;;26.33;35.18
55424;BME280;41294;42.666;23.350;2022-10-26T12:44:38;95465.94;;;26.07;35.60
55424;BME280;41294;42.666;23.350;2022-10-26T12:47:06;95464.56;;;26.14;35.27
55424;BME280;41294;42.666;23.350;2022-10-26T12:55:16;95469.34;;;25.87;35.95
55424;BME280;41294;42.666;23.350;2022-10-26T13:00:30;95474.03;;;25.61;36.49
55424;BME280;41294;42.666;23.350;2022-10-26T13:08:16;95470.16;;;25.10;36.41
55424;BME280;41294;42.666;23.350;2022-10-26T13:11:03;95473.06;;;25.12;36.79
55424;BME280;41294;42.666;23.350;2022-10-26T13:13:30;95477.38;;;24.77;37.36
55424;BME280;41294;42.666;23.350;2022-10-26T13:15:58;95477.16;;;24.75;37.13
55424;BME280;41294;42.666;23.350;2022-10-26T13:18:25;95478.19;;;24.59;37.16
55424;BME280;41294;42.666;23.350;2022-10-26T13:21:11;95472.56;;;24.57;36.59
55424;BME280;41294;42.666;23.350;2022-10-26T13:23:59;95481.00;;;24.35;36.42
55424;BME280;41294;42.666;23.350;2022-10-26T13:30:09;95480.84;;;23.96;35.90
55424;BME280;41294;42.666;23.350;2022-10-26T13:32:19;95483.56;;;23.78;35.90
55424;BME280;41294;42.666;23.350;2022-10-26T13:34:45;95484.72;;;23.82;35.79
55424;BME280;41294;42.666;23.350;2022-10-26T13:37:19;95481.59;;;23.78;35.44
55424;BME280;41294;42.666;23.350;2022-10-26T13:39:47;95487.53;;;23.71;36.01
55424;BME280;41294;42.666;23.350;2022-10-26T13:42:17;95480.25;;;23.66;35.80
55424;BME280;41294;42.666;23.350;2022-10-26T13:44:51;95492.97;;;23.66;35.84
55424;BME280;41294;42.666;23.350;2022-10-26T13:50:12;95491.00;;;23.29;35.50
55424;BME280;41294;42.666;23.350;2022-10-26T13:52:42;95497.75;;;23.36;36.02
55424;BME280;41294;42.666;23.350;2022-10-26T13:55:27;95489.69;;;23.36;35.25
55424;BME280;41294;42.666;23.350;2022-10-26T13:58:14;95496.38;;;23.29;35.63
55424;BME280;41294;42.666;23.350;2022-10-26T14:01:11;95496.44;;;23.24;35.17
55424;BME280;41294;42.666;23.350;2022-10-26T14:03:37;95499.69;;;22.88;35.71
55424;BME280;41294;42.666;23.350;2022-10-26T14:08:34;95499.28;;;23.08;35.70
55424;BME280;41294;42.666;23.350;2022-10-26T14:11:00;95499.75;;;23.12;35.68
55424;BME280;41294;42.666;23.350;2022-10-26T14:13:27;95500.09;;;22.97;35.85
55424;BME280;41294;42.666;23.350;2022-10-26T14:15:57;95493.91;;;22.84;36.43
55424;BME280;41294;42.666;23.350;2022-10-26T14:18:25;95502.72;;;22.79;36.50
55424;BME280;41294;42.666;23.350;2022-10-26T14:21:04;95497.53;;;22.86;36.19
55424;BME280;41294;42.666;23.350;2022-10-26T14:25:58;95502.56;;;22.71;36.78
55424;BME280;41294;42.666;23.350;2022-10-26T14:28:29;95503.09;;;22.64;37.46
55424;BME280;41294;42.666;23.350;2022-10-26T14:31:12;95502.38;;;22.64;37.88
55424;BME280;41294;42.666;23.350;2022-10-26T14:33:38;95500.56;;;22.48;38.08
55424;BME280;41294;42.666;23.350;2022-10-26T14:36:04;95506.59;;;22.54;38.23
55424;BME280;41294;42.666;23.350;2022-10-26T14:38:35;95506.38;;;22.52;38.44
55424;BME280;41294;42.666;23.350;2022-10-26T14:41:06;95504.56;;;22.36;38.34
55424;BME280;41294;42.666;23.350;2022-10-26T14:43:31;95504.88;;;22.22;38.60
55424;BME280;41294;42.666;23.350;2022-10-26T14:45:57;95507.34;;;22.20;39.17
55424;BME280;41294;42.666;23.350;2022-10-26T14:48:28;95513.47;;;22.15;39.41
55424;BME280;41294;42.666;23.350;2022-10-26T14:51:10;95515.88;;;22.18;39.62
55424;BME280;41294;42.666;23.350;2022-10-26T14:53:47;95512.97;;;22.16;39.52
55424;BME280;41294;42.666;23.350;2022-10-26T14:56:21;95518.63;;;22.07;39.39
55424;BME280;41294;42.666;23.350;2022-10-26T14:58:47;95524.81;;;21.91;39.63
55424;BME280;41294;42.666;23.350;2022-10-26T15:03:53;95529.31;;;21.72;40.59
55424;BME280;41294;42.666;23.350;2022-10-26T15:06:39;95530.09;;;21.51;41.00
55424;BME280;41294;42.666;23.350;2022-10-26T15:09:05;95526.22;;;21.52;41.28